Leon, West Virginia
Current Conditions -  °F | °C
As of 9:35 AM on Friday 28 Nov 2014 (Local Time) from K3I2 Reporting Station
Overcast Overcast  
Wind Chill: 26°   Ceiling: 3600
Heat Index: 32°   Visibility: 10mi
Dew Point: 21°   Wind: 6mph
Humidity: 64%   Direction: 260°W
Pressure: 30.42"   Gusts: NA
Location:  38.75°N, 81.96°W
Report Text: K3I2 281435Z AUTO 26005KT 10SM SCT028 OVC036 00/M06 A3042 RMK AO2
Loading
Personal Weather Stations






























Interactive Weather Map New forecast layout! Learn more

10-Day Weather Forecast

Advertisements
Track Severe Weather on mobile